Terminal Aerodrome Forecast
Issued by NWS

Home | Current Version | Previous Version | Text Only | Print | Product List | Glossary On
Versions: 1 2 3 4 5 6 7 8 9 10 11 12 13
000
FTUS45 KPIH 210500
TAFSUN
TAF
KSUN 210520Z 2106/2206 VRB05KT P6SM SCT060 BKN130
     FM211200 31006KT P6SM VCSH SCT050 BKN090 OVC130
     FM211800 14006KT P6SM VCTS BKN070CB OVC090
     FM212100 24015KT P6SM BKN070 BKN200
     FM220200 31006KT P6SM SCT060 SCT180
      AMD LTD TO CLD VIS AND WIND TIL 211300=

USA.gov is the U.S. government's official web portal to all federal, state and local government web resources and services.